createdAt,value
2023-06-11T00:02:25.903Z,14.55
2023-06-11T00:04:53.510Z,13.82
2023-06-11T00:07:20.998Z,16.27
2023-06-11T00:09:48.316Z,12.90
2023-06-11T00:12:15.742Z,14.48
2023-06-11T00:14:43.123Z,13.95
2023-06-11T00:17:10.484Z,14.95
2023-06-11T00:19:37.825Z,13.02
2023-06-11T00:22:06.357Z,15.37
2023-06-11T00:24:33.751Z,14.65
2023-06-11T00:27:03.927Z,13.63
2023-06-11T00:29:31.380Z,15.07
2023-06-11T00:31:58.783Z,13.02
2023-06-11T00:34:26.464Z,12.80
2023-06-11T00:36:54.282Z,17.40
2023-06-11T00:39:21.744Z,12.93
2023-06-11T00:41:50.405Z,12.38
2023-06-11T00:44:23.011Z,12.38
2023-06-11T00:46:52.413Z,15.53
2023-06-11T00:49:21.091Z,14.45
2023-06-11T00:51:48.381Z,13.80
2023-06-11T00:54:17.674Z,13.60
2023-06-11T00:56:45.297Z,12.68
2023-06-11T00:59:13.353Z,13.47
2023-06-11T01:01:53.068Z,13.07
2023-06-11T01:04:24.739Z,12.43
2023-06-11T01:06:53.975Z,12.63
2023-06-11T01:09:22.188Z,11.95
2023-06-11T01:11:56.062Z,14.37
2023-06-11T01:14:24.812Z,16.83
2023-06-11T01:16:59.169Z,13.05
2023-06-11T01:19:39.145Z,13.93
2023-06-11T01:22:34.700Z,12.38
2023-06-11T01:25:26.501Z,14.47
2023-06-11T01:28:11.439Z,15.27
2023-06-11T01:30:40.809Z,14.52
2023-06-11T01:33:09.567Z,12.68
2023-06-11T01:35:44.939Z,13.68
2023-06-11T01:38:13.140Z,13.57
2023-06-11T01:40:48.955Z,12.43
2023-06-11T01:43:17.092Z,14.40
2023-06-11T01:45:44.720Z,13.68
2023-06-11T01:48:12.193Z,13.55
2023-06-11T01:50:41.346Z,13.03
2023-06-11T01:53:08.969Z,13.82
2023-06-11T01:55:37.839Z,14.80
2023-06-11T01:58:05.520Z,17.27
2023-06-11T02:00:32.882Z,17.70
2023-06-11T02:03:03.227Z,16.37
2023-06-11T02:05:30.727Z,13.40
2023-06-11T02:07:58.115Z,15.15
2023-06-11T02:10:25.678Z,14.50
2023-06-11T02:12:53.038Z,16.95
2023-06-11T02:15:20.694Z,18.63
2023-06-11T02:17:48.088Z,15.93
2023-06-11T02:20:16.647Z,14.27
2023-06-11T02:22:44.470Z,16.35
2023-06-11T02:25:12.094Z,16.58
2023-06-11T02:27:39.677Z,16.57
2023-06-11T02:30:07.657Z,16.88
2023-06-11T02:32:35.051Z,17.55
2023-06-11T02:35:02.494Z,16.55
2023-06-11T02:37:29.825Z,17.33
2023-06-11T02:39:57.211Z,17.00
2023-06-11T02:42:24.812Z,15.43
2023-06-11T02:44:52.377Z,17.40
2023-06-11T02:47:19.704Z,15.82
2023-06-11T02:49:47.217Z,20.13
2023-06-11T02:52:14.456Z,15.63
2023-06-11T02:54:41.822Z,19.13
2023-06-11T02:57:09.057Z,15.10
2023-06-11T02:59:36.481Z,17.23
2023-06-11T03:02:03.934Z,15.93
2023-06-11T03:04:31.334Z,15.10
2023-06-11T03:06:58.716Z,15.52
2023-06-11T03:09:26.322Z,15.10
2023-06-11T03:11:53.718Z,15.60
2023-06-11T03:14:22.347Z,15.93
2023-06-11T03:16:49.705Z,15.67
2023-06-11T03:19:18.721Z,17.33
2023-06-11T03:21:46.705Z,19.10
2023-06-11T03:24:15.062Z,16.73
2023-06-11T03:26:42.390Z,15.48
2023-06-11T03:29:10.523Z,17.47
2023-06-11T03:31:46.005Z,16.13
2023-06-11T03:34:13.492Z,15.77
2023-06-11T03:36:40.846Z,14.60
2023-06-11T03:39:12.895Z,18.58
2023-06-11T03:41:41.031Z,14.47
2023-06-11T03:44:08.990Z,14.90
2023-06-11T03:46:36.627Z,15.23
2023-06-11T03:49:04.050Z,15.10
2023-06-11T03:51:31.585Z,16.52
2023-06-11T03:53:58.875Z,17.00
2023-06-11T03:56:26.760Z,14.52
2023-06-11T03:58:54.127Z,15.23
2023-06-11T04:01:21.992Z,15.15
2023-06-11T04:03:49.609Z,14.65
2023-06-11T04:06:18.664Z,16.23
2023-06-11T04:08:46.049Z,15.82
2023-06-11T04:11:13.406Z,16.55
2023-06-11T04:13:41.802Z,17.67
2023-06-11T04:16:09.612Z,14.25
2023-06-11T04:18:37.278Z,13.73
2023-06-11T04:21:04.599Z,14.57
2023-06-11T04:23:33.749Z,14.05
2023-06-11T04:26:03.024Z,13.80
2023-06-11T04:28:30.906Z,14.80
2023-06-11T04:30:59.267Z,13.53
2023-06-11T04:33:37.657Z,13.23
2023-06-11T04:36:08.613Z,14.77
2023-06-11T04:38:39.126Z,13.85
2023-06-11T04:41:06.811Z,13.02
2023-06-11T04:43:35.250Z,12.37
2023-06-11T04:46:05.593Z,14.77
2023-06-11T04:48:34.174Z,15.35
2023-06-11T04:51:01.994Z,16.52
2023-06-11T04:53:38.571Z,12.40
2023-06-11T04:56:08.649Z,15.27
2023-06-11T04:58:38.802Z,14.70
2023-06-11T05:01:06.963Z,12.73
2023-06-11T05:03:38.339Z,14.52
2023-06-11T05:06:09.647Z,13.30
2023-06-11T05:08:40.107Z,13.00
2023-06-11T05:11:07.477Z,14.02
2023-06-11T05:13:35.691Z,15.85
2023-06-11T05:16:07.047Z,13.88
2023-06-11T05:18:35.237Z,14.23
2023-06-11T05:21:05.209Z,15.13
2023-06-11T05:23:34.453Z,14.25
2023-06-11T05:26:13.333Z,11.88
2023-06-11T05:28:44.866Z,12.07
2023-06-11T05:31:14.181Z,13.32
2023-06-11T05:33:45.383Z,14.13
2023-06-11T05:36:12.854Z,13.32
2023-06-11T05:38:40.934Z,13.45
2023-06-11T05:41:08.795Z,13.75
2023-06-11T05:43:36.876Z,13.52
2023-06-11T05:46:04.879Z,13.73
2023-06-11T05:48:33.082Z,12.70
2023-06-11T05:51:00.859Z,13.55
2023-06-11T05:53:29.035Z,12.50
2023-06-11T05:55:57.869Z,12.50
2023-06-11T05:58:25.752Z,13.80
2023-06-11T06:00:55.561Z,14.13
2023-06-11T06:03:23.477Z,12.60
2023-06-11T06:05:51.237Z,11.80
2023-06-11T06:08:18.723Z,13.30
2023-06-11T06:10:46.080Z,12.27
2023-06-11T06:13:13.587Z,13.13
2023-06-11T06:15:43.191Z,13.15
2023-06-11T06:18:11.788Z,13.75
2023-06-11T06:20:41.986Z,12.15
2023-06-11T06:23:09.859Z,13.53
2023-06-11T06:25:39.585Z,12.90
2023-06-11T06:28:10.599Z,11.93
2023-06-11T06:30:41.146Z,11.45
2023-06-11T06:33:09.904Z,11.82
2023-06-11T06:35:37.311Z,11.43
2023-06-11T06:38:06.327Z,11.95
2023-06-11T06:40:35.505Z,11.95
2023-06-11T06:43:02.910Z,12.57
2023-06-11T06:45:34.856Z,12.43
2023-06-11T06:48:10.232Z,12.50
2023-06-11T06:50:38.345Z,10.43
2023-06-11T06:53:05.724Z,10.38
2023-06-11T06:55:33.375Z,12.15
2023-06-11T06:58:05.372Z,11.38
2023-06-11T07:00:33.260Z,11.70
2023-06-11T07:03:00.716Z,10.60
2023-06-11T07:05:28.940Z,10.73
2023-06-11T07:07:56.375Z,13.85
2023-06-11T07:10:24.080Z,13.82
2023-06-11T07:12:53.130Z,11.20
2023-06-11T07:15:20.521Z,11.75
2023-06-11T07:17:48.293Z,10.88
2023-06-11T07:20:17.678Z,11.25
2023-06-11T07:22:45.466Z,11.55
2023-06-11T07:25:13.662Z,11.30
2023-06-11T07:27:41.096Z,12.43
2023-06-11T07:30:09.984Z,12.55
2023-06-11T07:32:38.273Z,13.40
2023-06-11T07:35:05.899Z,10.13
2023-06-11T07:37:33.272Z,17.37
2023-06-11T07:40:01.002Z,12.82
2023-06-11T07:42:28.279Z,14.00
2023-06-11T07:44:55.847Z,13.18
2023-06-11T07:47:23.133Z,13.38
2023-06-11T07:49:50.719Z,15.53
2023-06-11T07:52:18.035Z,13.55
2023-06-11T07:54:45.544Z,12.70
2023-06-11T07:57:14.178Z,13.57
2023-06-11T07:59:43.542Z,15.57
2023-06-11T08:02:11.677Z,14.07
2023-06-11T08:04:39.223Z,14.13
2023-06-11T08:07:06.487Z,15.05
2023-06-11T08:09:34.587Z,16.65
2023-06-11T08:12:02.510Z,15.93
2023-06-11T08:14:29.869Z,15.13
2023-06-11T08:16:57.372Z,16.00
2023-06-11T08:19:24.910Z,15.55
2023-06-11T08:21:52.187Z,14.55
2023-06-11T08:24:19.939Z,18.55
2023-06-11T08:26:47.315Z,15.50
2023-06-11T08:29:14.707Z,19.33
2023-06-11T08:31:42.323Z,15.77
2023-06-11T08:34:10.110Z,17.60
2023-06-11T08:36:38.157Z,17.33
2023-06-11T08:39:05.509Z,17.83
2023-06-11T08:41:33.011Z,15.88
2023-06-11T08:44:00.373Z,17.63
2023-06-11T08:46:27.653Z,15.32
2023-06-11T08:48:59.940Z,15.63
2023-06-11T08:51:30.593Z,15.07
2023-06-11T08:53:57.981Z,14.52
2023-06-11T08:56:25.708Z,15.48
2023-06-11T08:58:53.037Z,15.27
2023-06-11T09:01:24.794Z,16.15
2023-06-11T09:03:52.205Z,15.30
2023-06-11T09:06:19.804Z,16.08
2023-06-11T09:09:00.204Z,17.77
2023-06-11T09:11:37.564Z,15.68
2023-06-11T09:14:05.566Z,15.18
2023-06-11T09:16:59.286Z,30.93
2023-06-11T09:19:26.646Z,14.30
2023-06-11T09:21:57.569Z,15.73
2023-06-11T09:24:25.620Z,13.68
2023-06-11T09:26:57.646Z,12.70
2023-06-11T09:29:25.911Z,14.27
2023-06-11T09:32:19.537Z,17.08
2023-06-11T09:34:51.160Z,13.32
2023-06-11T09:37:18.436Z,12.23
2023-06-11T09:39:46.775Z,10.98
2023-06-11T09:42:24.416Z,11.37
2023-06-11T09:44:52.658Z,11.45
2023-06-11T09:47:19.961Z,12.57
2023-06-11T09:49:47.342Z,11.75
2023-06-11T09:52:14.721Z,10.23
2023-06-11T09:54:42.587Z,14.17
2023-06-11T09:57:09.834Z,11.82
2023-06-11T09:59:38.105Z,13.07
2023-06-11T10:02:05.806Z,11.95
2023-06-11T10:04:33.191Z,10.27
2023-06-11T10:07:00.722Z,11.63
2023-06-11T10:09:28.002Z,11.63
2023-06-11T10:11:55.260Z,10.98
2023-06-11T10:14:23.671Z,11.35
2023-06-11T10:16:51.452Z,12.05
2023-06-11T10:19:19.056Z,11.80
2023-06-11T10:21:51.618Z,11.00
2023-06-11T10:24:25.928Z,13.80
2023-06-11T10:27:10.118Z,11.10
2023-06-11T10:29:49.988Z,11.60
2023-06-11T10:32:21.227Z,11.27
2023-06-11T10:34:49.449Z,12.18
2023-06-11T10:37:16.877Z,10.68
2023-06-11T10:39:51.752Z,13.43
2023-06-11T10:42:34.813Z,11.18
2023-06-11T10:45:06.060Z,13.07
2023-06-11T10:47:51.079Z,11.63
2023-06-11T10:50:25.051Z,9.13
2023-06-11T10:52:53.304Z,10.20
2023-06-11T10:55:21.795Z,12.75
2023-06-11T10:57:55.722Z,10.10
2023-06-11T11:00:23.367Z,11.93
2023-06-11T11:02:52.360Z,11.40
2023-06-11T11:05:20.322Z,10.38
2023-06-11T11:07:48.452Z,10.15
2023-06-11T11:10:20.810Z,9.73
2023-06-11T11:12:48.593Z,13.25
2023-06-11T11:15:16.082Z,9.93
2023-06-11T11:17:44.175Z,10.60
2023-06-11T11:20:12.800Z,9.50
2023-06-11T11:22:40.124Z,10.43
2023-06-11T11:25:08.167Z,11.00
2023-06-11T11:27:36.390Z,9.85
2023-06-11T11:30:04.474Z,11.38
2023-06-11T11:32:33.589Z,11.68
2023-06-11T11:35:02.150Z,11.40
2023-06-11T11:37:32.432Z,14.25
2023-06-11T11:40:08.219Z,11.15
2023-06-11T11:42:52.001Z,11.90
2023-06-11T11:45:20.437Z,11.68
2023-06-11T11:47:52.399Z,12.30
2023-06-11T11:50:31.630Z,12.75
2023-06-11T11:53:07.027Z,10.73
2023-06-11T11:55:38.108Z,10.98
2023-06-11T11:58:16.260Z,13.30
2023-06-11T12:00:59.175Z,12.87
2023-06-11T12:03:27.659Z,11.02
2023-06-11T12:06:02.598Z,12.07
2023-06-11T12:08:31.082Z,11.65
2023-06-11T12:10:58.834Z,12.07
2023-06-11T12:13:26.200Z,10.13
2023-06-11T12:15:53.706Z,9.90
2023-06-11T12:18:21.554Z,11.60
2023-06-11T12:20:49.115Z,11.10
2023-06-11T12:23:16.461Z,10.75
2023-06-11T12:25:43.910Z,12.23
2023-06-11T12:28:11.340Z,11.05
2023-06-11T12:30:38.627Z,11.07
2023-06-11T12:33:05.985Z,11.43
2023-06-11T12:35:33.469Z,9.65
2023-06-11T12:38:00.921Z,11.03
2023-06-11T12:40:29.360Z,10.25
2023-06-11T12:43:00.863Z,9.77
2023-06-11T12:45:29.197Z,10.23
2023-06-11T12:47:56.678Z,11.43
2023-06-11T12:50:28.118Z,8.87
2023-06-11T12:52:56.390Z,13.27
2023-06-11T12:55:25.596Z,10.45
2023-06-11T12:57:53.235Z,9.90
2023-06-11T13:00:20.491Z,9.88
2023-06-11T13:02:47.912Z,11.20
2023-06-11T13:05:15.210Z,9.80
2023-06-11T13:07:42.648Z,10.75
2023-06-11T13:10:10.460Z,10.07
2023-06-11T13:12:38.147Z,9.60
2023-06-11T13:15:06.060Z,11.53
2023-06-11T13:17:33.380Z,9.43
2023-06-11T13:20:00.890Z,8.45
2023-06-11T13:22:28.328Z,9.68
2023-06-11T13:24:55.809Z,11.65
2023-06-11T13:27:23.170Z,8.80
2023-06-11T13:29:50.677Z,10.80
2023-06-11T13:32:19.866Z,9.10
2023-06-11T13:34:47.484Z,9.00
2023-06-11T13:37:15.085Z,9.05
2023-06-11T13:39:42.538Z,9.47
2023-06-11T13:42:11.559Z,11.48
2023-06-11T13:44:38.872Z,9.43
2023-06-11T13:47:06.723Z,9.63
2023-06-11T13:49:34.129Z,13.13
2023-06-11T13:52:02.096Z,9.70
2023-06-11T13:54:29.617Z,9.23
2023-06-11T13:56:57.212Z,11.75
2023-06-11T13:59:24.484Z,9.35
2023-06-11T14:01:53.078Z,9.23
2023-06-11T14:04:20.344Z,10.53
2023-06-11T14:06:47.698Z,9.15
2023-06-11T14:09:15.395Z,10.38
2023-06-11T14:11:42.716Z,12.55
2023-06-11T14:14:10.749Z,10.00
2023-06-11T14:16:38.072Z,9.83
2023-06-11T14:19:05.392Z,11.63
2023-06-11T14:21:32.816Z,10.05
2023-06-11T14:24:00.232Z,10.77
2023-06-11T14:26:27.606Z,9.82
2023-06-11T14:28:54.910Z,10.03
2023-06-11T14:31:22.543Z,10.85
2023-06-11T14:33:49.937Z,10.50
2023-06-11T14:36:17.225Z,10.65
2023-06-11T14:38:44.472Z,11.57
2023-06-11T14:41:11.902Z,11.10
2023-06-11T14:43:39.162Z,10.38
2023-06-11T14:46:06.552Z,11.73
2023-06-11T14:48:33.851Z,11.68
2023-06-11T14:51:07.321Z,10.40
2023-06-11T14:53:34.669Z,9.37
2023-06-11T14:56:01.927Z,13.05
2023-06-11T14:58:29.273Z,11.40
2023-06-11T15:00:56.490Z,11.52
2023-06-11T15:03:23.954Z,10.00
2023-06-11T15:05:51.841Z,10.40
2023-06-11T15:08:19.209Z,10.10
2023-06-11T15:10:46.448Z,9.93
2023-06-11T15:13:14.312Z,10.07
2023-06-11T15:15:41.522Z,11.05
2023-06-11T15:18:09.138Z,10.20
2023-06-11T15:20:36.479Z,10.93
2023-06-11T15:23:03.956Z,10.68
2023-06-11T15:25:31.237Z,10.63
2023-06-11T15:27:58.629Z,11.25
2023-06-11T15:30:26.962Z,11.13
2023-06-11T15:32:56.656Z,10.90
2023-06-11T15:35:26.801Z,9.85
2023-06-11T15:37:54.083Z,10.57
2023-06-11T15:40:23.305Z,10.20
2023-06-11T15:42:50.608Z,9.83
2023-06-11T15:45:18.030Z,11.07
2023-06-11T15:47:45.511Z,12.27
2023-06-11T15:50:13.472Z,12.50
2023-06-11T15:52:41.090Z,10.65
2023-06-11T15:55:08.932Z,9.23
2023-06-11T15:57:37.470Z,9.80
2023-06-11T16:00:05.441Z,10.95
2023-06-11T16:02:32.620Z,10.48
2023-06-11T16:05:02.027Z,12.68
2023-06-11T16:07:29.395Z,12.77
2023-06-11T16:09:56.919Z,10.18
2023-06-11T16:12:24.238Z,12.93
2023-06-11T16:14:51.546Z,11.70
2023-06-11T16:17:20.667Z,10.60
2023-06-11T16:19:48.138Z,10.37
2023-06-11T16:22:15.570Z,10.80
2023-06-11T16:24:42.922Z,11.43
2023-06-11T16:27:10.262Z,12.15
2023-06-11T16:29:37.706Z,11.55
2023-06-11T16:32:05.615Z,15.27
2023-06-11T16:34:33.062Z,11.68
2023-06-11T16:37:00.345Z,11.15
2023-06-11T16:39:28.791Z,10.13
2023-06-11T16:41:56.745Z,11.05
2023-06-11T16:44:24.301Z,11.00
2023-06-11T16:46:52.377Z,11.50
2023-06-11T16:49:19.955Z,9.50
2023-06-11T16:51:47.227Z,10.55
2023-06-11T16:54:18.251Z,11.18
2023-06-11T16:56:46.270Z,12.83
2023-06-11T16:59:13.566Z,12.07
2023-06-11T17:01:41.008Z,12.38
2023-06-11T17:04:08.397Z,11.38
2023-06-11T17:06:35.931Z,9.68
2023-06-11T17:09:03.197Z,11.27
2023-06-11T17:11:30.609Z,12.30
2023-06-11T17:13:57.830Z,11.52
2023-06-11T17:16:25.278Z,11.80
2023-06-11T17:18:52.600Z,10.82
2023-06-11T17:21:20.169Z,11.00
2023-06-11T17:23:47.524Z,10.35
2023-06-11T17:26:17.330Z,10.35
2023-06-11T17:28:45.142Z,10.30
2023-06-11T17:31:14.141Z,10.70
2023-06-11T17:33:41.668Z,11.77
2023-06-11T17:36:09.587Z,9.70
2023-06-11T17:38:36.897Z,9.80
2023-06-11T17:41:04.174Z,10.70
2023-06-11T17:43:31.593Z,9.80
2023-06-11T17:45:58.836Z,10.87
2023-06-11T17:48:26.539Z,9.40
2023-06-11T17:50:53.830Z,10.40
2023-06-11T17:53:21.573Z,10.43
2023-06-11T17:55:50.632Z,9.52
2023-06-11T17:58:18.503Z,11.57
2023-06-11T18:00:45.976Z,12.43
2023-06-11T18:03:13.460Z,10.05
2023-06-11T18:05:40.974Z,12.13
2023-06-11T18:08:08.697Z,10.95
2023-06-11T18:10:36.028Z,10.77
2023-06-11T18:13:05.102Z,10.98
2023-06-11T18:15:35.035Z,10.68
2023-06-11T18:18:04.907Z,10.85
2023-06-11T18:20:32.932Z,9.20
2023-06-11T18:23:00.557Z,9.63
2023-06-11T18:25:28.271Z,9.52
2023-06-11T18:27:55.691Z,9.32
2023-06-11T18:30:23.046Z,11.23
2023-06-11T18:32:50.619Z,10.20
2023-06-11T18:35:21.046Z,9.50
2023-06-11T18:37:48.526Z,10.60
2023-06-11T18:40:16.526Z,12.60
2023-06-11T18:42:44.075Z,10.85
2023-06-11T18:45:11.498Z,10.23
2023-06-11T18:47:40.502Z,9.33
2023-06-11T18:50:10.980Z,9.50
2023-06-11T18:52:38.958Z,11.65
2023-06-11T18:55:06.654Z,12.57
2023-06-11T18:57:34.048Z,11.85
2023-06-11T19:00:01.881Z,9.97
2023-06-11T19:02:29.475Z,10.55
2023-06-11T19:04:57.166Z,11.38
2023-06-11T19:07:24.675Z,11.38
2023-06-11T19:09:52.633Z,10.35
2023-06-11T19:12:20.002Z,11.87
2023-06-11T19:14:47.660Z,10.43
2023-06-11T19:17:15.195Z,12.05
2023-06-11T19:19:42.564Z,9.85
2023-06-11T19:22:10.167Z,10.88
2023-06-11T19:24:37.504Z,11.00
2023-06-11T19:27:05.283Z,12.77
2023-06-11T19:29:32.944Z,12.25
2023-06-11T19:32:00.419Z,11.57
2023-06-11T19:34:27.663Z,13.57
2023-06-11T19:36:55.159Z,10.50
2023-06-11T19:39:22.476Z,9.88
2023-06-11T19:41:49.823Z,10.98
2023-06-11T19:44:17.197Z,10.20
2023-06-11T19:46:45.014Z,13.48
2023-06-11T19:49:12.680Z,11.10
2023-06-11T19:51:40.652Z,11.43
2023-06-11T19:54:07.936Z,11.02
2023-06-11T19:56:35.439Z,10.50
2023-06-11T19:59:02.752Z,11.55
2023-06-11T20:01:30.094Z,10.43
2023-06-11T20:03:57.455Z,13.02
2023-06-11T20:06:24.815Z,11.85
2023-06-11T20:08:54.019Z,13.88
2023-06-11T20:11:22.268Z,11.38
2023-06-11T20:13:49.572Z,13.63
2023-06-11T20:16:16.934Z,11.98
2023-06-11T20:18:44.239Z,10.60
2023-06-11T20:21:11.640Z,11.00
2023-06-11T20:23:38.904Z,12.07
2023-06-11T20:26:06.524Z,11.17
2023-06-11T20:28:33.795Z,11.98
2023-06-11T20:31:04.617Z,14.25
2023-06-11T20:33:32.914Z,9.40
2023-06-11T20:36:00.193Z,12.48
2023-06-11T20:38:27.741Z,12.33
2023-06-11T20:40:55.043Z,11.55
2023-06-11T20:43:22.377Z,13.23
2023-06-11T20:45:57.828Z,10.45
2023-06-11T20:48:25.960Z,11.95
2023-06-11T20:50:53.502Z,11.23
2023-06-11T20:53:33.228Z,11.60
2023-06-11T20:56:02.042Z,14.35
2023-06-11T20:58:29.340Z,12.73
2023-06-11T21:00:56.658Z,11.05
2023-06-11T21:03:24.050Z,11.47
2023-06-11T21:05:51.696Z,10.95
2023-06-11T21:08:19.319Z,10.60
2023-06-11T21:10:47.008Z,12.10
2023-06-11T21:13:15.140Z,12.98
2023-06-11T21:15:42.556Z,11.07
2023-06-11T21:18:09.935Z,10.60
2023-06-11T21:20:41.231Z,10.18
2023-06-11T21:23:08.631Z,10.57
2023-06-11T21:25:35.971Z,11.13
2023-06-11T21:28:03.329Z,12.30
2023-06-11T21:30:30.815Z,11.25
2023-06-11T21:32:58.224Z,9.40
2023-06-11T21:35:25.689Z,9.80
2023-06-11T21:37:53.090Z,10.38
2023-06-11T21:40:20.443Z,10.83
2023-06-11T21:42:47.791Z,10.10
2023-06-11T21:45:15.019Z,11.38
2023-06-11T21:47:42.373Z,11.98
2023-06-11T21:50:10.522Z,11.10
2023-06-11T21:52:39.053Z,9.97
2023-06-11T21:55:08.341Z,10.93
2023-06-11T21:57:35.970Z,13.32
2023-06-11T22:00:12.672Z,11.05
2023-06-11T22:02:42.004Z,9.48
2023-06-11T22:05:10.092Z,11.87
2023-06-11T22:07:37.650Z,10.25
2023-06-11T22:10:05.463Z,9.88
2023-06-11T22:12:42.729Z,8.48
2023-06-11T22:15:11.437Z,10.13
2023-06-11T22:17:40.563Z,8.53
2023-06-11T22:20:10.239Z,8.82
2023-06-11T22:22:39.212Z,9.00
2023-06-11T22:25:09.252Z,9.48
2023-06-11T22:27:37.383Z,8.25
2023-06-11T22:30:05.726Z,8.63
2023-06-11T22:32:33.081Z,8.48
2023-06-11T22:35:00.399Z,7.95
2023-06-11T22:37:27.762Z,9.88
2023-06-11T22:39:55.404Z,7.15
2023-06-11T22:42:22.668Z,7.57
2023-06-11T22:44:49.909Z,7.28
2023-06-11T22:47:17.548Z,7.25
2023-06-11T22:49:44.856Z,7.47
2023-06-11T22:52:12.780Z,6.70
2023-06-11T22:54:40.175Z,7.07
2023-06-11T22:57:07.722Z,7.40
2023-06-11T22:59:35.134Z,7.85
2023-06-11T23:02:02.460Z,7.43
2023-06-11T23:04:29.819Z,7.82
2023-06-11T23:06:57.235Z,7.37
2023-06-11T23:09:24.521Z,6.72
2023-06-11T23:11:51.912Z,7.68
2023-06-11T23:14:19.219Z,7.55
2023-06-11T23:16:49.652Z,7.10
2023-06-11T23:19:26.547Z,7.77
2023-06-11T23:21:58.177Z,7.47
2023-06-11T23:24:28.967Z,6.85
2023-06-11T23:27:02.524Z,6.72
2023-06-11T23:29:30.530Z,8.95
2023-06-11T23:31:57.972Z,8.83
2023-06-11T23:34:25.373Z,8.65
2023-06-11T23:36:53.632Z,7.43
2023-06-11T23:39:21.217Z,7.07
2023-06-11T23:41:48.561Z,7.20
2023-06-11T23:44:16.003Z,6.90
2023-06-11T23:46:44.563Z,7.38
2023-06-11T23:49:11.965Z,6.35
2023-06-11T23:51:41.785Z,7.25
2023-06-11T23:54:09.137Z,6.85
2023-06-11T23:56:36.454Z,8.87
2023-06-11T23:59:03.769Z,7.45
